Time;durP1;ratioP1;P1;durP2;ratioP2;P2;SDS_P1;SDS_P2;PMS_P1;PMS_P2;Temp;Humidity;BMP_temperature;BMP_pressure;BME280_temperature;BME280_humidity;BME280_pressure;Samples;Min_cycle;Max_cycle;Signal;HPM_P1;HPM_P2
2023/01/28 00:01:36;;;;;;;12.40;6.68;;;;;;;-144.31;100.00;58022.63;5008019;28;20037;-59
2023/01/28 00:05:00;;;;;;;12.38;6.90;;;;;;;-144.31;100.00;58022.63;5012248;28;20706;-62
2023/01/28 00:08:24;;;;;;;11.55;6.57;;;;;;;-144.31;100.00;58022.63;5013480;28;20403;-58
2023/01/28 00:11:48;;;;;;;12.15;6.50;;;;;;;-144.31;100.00;58022.63;5020478;28;20886;-57
2023/01/28 00:15:13;;;;;;;12.27;7.05;;;;;;;-144.31;100.00;58022.63;5016900;28;20136;-55
2023/01/28 00:18:37;;;;;;;13.43;8.18;;;;;;;-144.31;100.00;58022.63;5021292;28;20054;-56
2023/01/28 00:22:05;;;;;;;13.95;8.00;;;;;;;-144.31;100.00;58022.63;5022106;28;20486;-53
2023/01/28 00:25:29;;;;;;;13.25;7.45;;;;;;;-144.31;100.00;58022.63;5014441;28;20084;-56
2023/01/28 00:28:53;;;;;;;14.48;7.20;;;;;;;-144.31;100.00;58022.63;5017114;28;20536;-58
2023/01/28 00:32:19;;;;;;;11.63;6.43;;;;;;;-144.31;100.00;58022.63;5015044;28;20126;-58
2023/01/28 00:35:43;;;;;;;13.18;6.82;;;;;;;-144.31;100.00;58022.63;5009511;28;20513;-58
2023/01/28 00:39:12;;;;;;;11.82;7.05;;;;;;;-144.31;100.00;58022.63;5025537;28;20184;-53
2023/01/28 00:42:36;;;;;;;11.07;6.15;;;;;;;-144.31;100.00;58022.63;5013197;28;20076;-58
2023/01/28 00:46:00;;;;;;;11.43;6.30;;;;;;;-144.31;100.00;58022.63;5007651;28;20046;-55
2023/01/28 00:49:24;;;;;;;11.60;6.72;;;;;;;-144.31;100.00;58022.63;5022047;28;20834;-57
2023/01/28 00:52:48;;;;;;;11.20;6.20;;;;;;;-144.31;100.00;58022.63;5006767;28;20137;-57
2023/01/28 00:56:14;;;;;;;12.93;6.70;;;;;;;-144.31;100.00;58022.63;5017435;28;20509;-55
2023/01/28 00:59:38;;;;;;;10.75;6.03;;;;;;;-144.31;100.00;58022.63;5017661;28;20122;-54
2023/01/28 01:03:02;;;;;;;10.80;6.15;;;;;;;-144.31;100.00;58022.63;5010773;28;20072;-54
2023/01/28 01:06:30;;;;;;;11.85;6.70;;;;;;;-144.31;100.00;58022.63;5021959;28;20134;-55
2023/01/28 01:09:58;;;;;;;10.43;5.57;;;;;;;-144.31;100.00;58022.63;5014610;28;20037;-53
2023/01/28 01:13:22;;;;;;;10.45;6.00;;;;;;;-144.31;100.00;58022.63;5015422;28;20046;-57
2023/01/28 01:16:46;;;;;;;11.65;6.07;;;;;;;-144.31;100.00;58022.63;5014102;28;20541;-59
2023/01/28 01:20:13;;;;;;;12.23;7.22;;;;;;;-144.31;100.00;58022.63;5012921;28;20070;-60
2023/01/28 01:23:37;;;;;;;11.75;6.15;;;;;;;-144.31;100.00;58022.63;5011948;28;20049;-54
2023/01/28 01:27:04;;;;;;;13.07;6.88;;;;;;;-144.31;100.00;58022.63;5009196;28;20049;-53
2023/01/28 01:30:29;;;;;;;10.45;6.32;;;;;;;-144.31;100.00;58022.63;5013104;28;20486;-59
2023/01/28 01:33:53;;;;;;;11.13;6.45;;;;;;;-144.31;100.00;58022.63;5014047;28;20482;-56
2023/01/28 01:37:17;;;;;;;12.98;7.45;;;;;;;-144.31;100.00;58022.63;5022237;28;20041;-52
2023/01/28 01:40:41;;;;;;;11.80;6.90;;;;;;;-144.31;100.00;58022.63;5023978;28;20449;-53
2023/01/28 01:44:31;;;;;;;10.75;6.53;;;;;;;-144.31;100.00;58022.63;5016657;28;20057;-53
2023/01/28 01:48:08;;;;;;;17.75;7.53;;;;;;;-144.31;100.00;58022.63;5018618;28;20075;-58
2023/01/28 01:51:36;;;;;;;12.93;6.35;;;;;;;-144.31;100.00;58022.63;5018178;28;20042;-57
2023/01/28 01:55:04;;;;;;;13.05;6.70;;;;;;;-144.31;100.00;58022.63;5013218;28;20042;-54
2023/01/28 01:58:32;;;;;;;10.88;6.15;;;;;;;-144.31;100.00;58022.63;5009606;28;20140;-55
2023/01/28 02:02:00;;;;;;;11.93;7.07;;;;;;;-144.31;100.00;58022.63;5027756;28;20842;-56
2023/01/28 02:05:26;;;;;;;11.75;6.43;;;;;;;-144.31;100.00;58022.63;5010334;28;20065;-55
2023/01/28 02:08:53;;;;;;;9.73;5.95;;;;;;;-144.31;100.00;58022.63;5010544;28;20403;-61
2023/01/28 02:12:23;;;;;;;12.48;7.00;;;;;;;-144.31;100.00;58022.63;4998793;28;20057;-58
2023/01/28 02:15:50;;;;;;;13.50;6.95;;;;;;;-144.31;100.00;58022.63;5015174;28;20393;-55
2023/01/28 02:19:15;;;;;;;11.68;6.80;;;;;;;-144.31;100.00;58022.63;5012561;28;20487;-59
2023/01/28 02:22:56;;;;;;;12.75;7.15;;;;;;;-144.31;100.00;58022.63;5012797;28;20502;-57
2023/01/28 02:26:40;;;;;;;12.50;7.10;;;;;;;-144.31;100.00;58022.63;5010933;28;20042;-57
2023/01/28 02:30:33;;;;;;;11.57;6.80;;;;;;;-144.31;100.00;58022.63;5014011;28;20037;-58
2023/01/28 02:34:03;;;;;;;11.75;6.95;;;;;;;-144.31;100.00;58022.63;5021971;28;20034;-54
2023/01/28 02:37:40;;;;;;;13.80;7.88;;;;;;;-144.31;100.00;58022.63;5017998;28;20510;-56
2023/01/28 02:41:30;;;;;;;11.25;7.22;;;;;;;-144.31;100.00;58022.63;5013643;28;20363;-58
2023/01/28 02:44:54;;;;;;;12.05;7.25;;;;;;;-144.31;100.00;58022.63;5018855;28;20044;-58
2023/01/28 02:48:21;;;;;;;11.68;7.15;;;;;;;-144.31;100.00;58022.63;5021984;28;20052;-57
2023/01/28 02:52:02;;;;;;;12.45;7.28;;;;;;;-144.31;100.00;58022.63;4997537;28;20048;-54
2023/01/28 02:55:57;;;;;;;11.93;7.22;;;;;;;-144.31;100.00;58022.63;5014810;28;20491;-56
2023/01/28 02:59:34;;;;;;;12.77;7.88;;;;;;;-144.31;100.00;58022.63;5013364;28;20042;-54
2023/01/28 03:03:28;;;;;;;14.32;7.57;;;;;;;-144.31;100.00;58022.63;5013759;28;20042;-58
2023/01/28 03:06:57;;;;;;;13.18;7.60;;;;;;;-144.31;100.00;58022.63;5021745;28;20124;-55
2023/01/28 03:10:24;;;;;;;11.05;6.72;;;;;;;-144.31;100.00;58022.63;5012595;28;20056;-59
2023/01/28 03:36:50;;;;;;;12.52;7.65;;;;;;;-144.31;100.00;58022.63;5011798;28;20081;-59
2023/01/28 03:40:33;;;;;;;14.60;7.80;;;;;;;-144.31;100.00;58022.63;5011086;28;20437;-57
2023/01/28 03:47:43;;;;;;;13.88;8.25;;;;;;;-144.31;100.00;58022.63;5014687;28;20041;-55
2023/01/28 03:51:08;;;;;;;16.00;8.90;;;;;;;-144.31;100.00;58022.63;5018536;28;20038;-54
2023/01/28 03:54:32;;;;;;;16.20;8.90;;;;;;;-144.31;100.00;58022.63;5021701;28;20056;-55
2023/01/28 03:57:56;;;;;;;20.02;9.50;;;;;;;-144.31;100.00;58022.63;5010969;28;20167;-56
2023/01/28 04:01:20;;;;;;;13.18;8.43;;;;;;;-144.31;100.00;58022.63;5008820;28;20057;-56
2023/01/28 04:04:45;;;;;;;16.60;8.73;;;;;;;-144.31;100.00;58022.63;5011612;28;20045;-55
2023/01/28 04:08:10;;;;;;;18.83;9.60;;;;;;;-144.31;100.00;58022.63;5019916;28;20037;-54
2023/01/28 04:11:47;;;;;;;16.58;8.70;;;;;;;-144.31;100.00;58022.63;5014499;28;20045;-57
2023/01/28 04:15:16;;;;;;;19.63;9.73;;;;;;;-144.31;100.00;58022.63;5029025;28;20044;-55
2023/01/28 04:18:42;;;;;;;;;;;;;;;-144.31;100.00;58022.63;5018952;28;20053;-55
2023/01/28 04:22:09;;;;;;;20.75;10.07;;;;;;;-144.31;100.00;58022.63;5009270;28;19917;-54
2023/01/28 04:25:33;;;;;;;20.63;9.60;;;;;;;-144.31;100.00;58022.63;5011631;28;20386;-56
2023/01/28 04:28:58;;;;;;;17.27;9.93;;;;;;;-144.31;100.00;58022.63;5013305;28;20041;-58
2023/01/28 04:32:22;;;;;;;19.80;10.77;;;;;;;-144.31;100.00;58022.63;5013013;28;20049;-57
2023/01/28 04:36:21;;;;;;;21.60;11.25;;;;;;;-144.31;100.00;58022.63;5013724;28;20080;-57
2023/01/28 04:40:11;;;;;;;20.00;10.95;;;;;;;-144.31;100.00;58022.63;5011658;28;20041;-54
2023/01/28 04:43:53;;;;;;;21.85;11.10;;;;;;;-144.31;100.00;58022.63;5019006;28;20117;-53
2023/01/28 04:47:32;;;;;;;18.50;10.43;;;;;;;-144.31;100.00;58022.63;5022496;28;20065;-53
2023/01/28 04:51:14;;;;;;;19.15;10.85;;;;;;;-144.31;100.00;58022.63;5011547;28;20072;-54
2023/01/28 04:54:47;;;;;;;16.27;10.27;;;;;;;-144.31;100.00;58022.63;5006948;28;20048;-57
2023/01/28 04:58:11;;;;;;;21.45;10.63;;;;;;;-144.31;100.00;58022.63;5022816;28;20494;-55
2023/01/28 05:01:35;;;;;;;17.48;10.13;;;;;;;-144.31;100.00;58022.63;5012767;28;20141;-55
2023/01/28 05:05:03;;;;;;;19.83;10.98;;;;;;;-144.31;100.00;58022.63;5001806;28;20267;-58
2023/01/28 05:08:50;;;;;;;16.05;10.43;;;;;;;-144.31;100.00;58022.63;5008762;28;20318;-57
2023/01/28 05:12:14;;;;;;;17.85;10.00;;;;;;;-144.31;100.00;58022.63;5009747;28;20124;-61
2023/01/28 05:15:38;;;;;;;18.15;10.30;;;;;;;-144.31;100.00;58022.63;5013191;28;20068;-59
2023/01/28 05:19:02;;;;;;;18.67;10.30;;;;;;;-144.31;100.00;58022.63;5014011;28;20034;-59
2023/01/28 05:22:30;;;;;;;17.85;10.45;;;;;;;-144.31;100.00;58022.63;5016043;28;20132;-56
2023/01/28 05:26:32;;;;;;;18.60;9.93;;;;;;;-144.31;100.00;58022.63;5013085;28;20037;-56
2023/01/28 05:29:56;;;;;;;18.98;10.63;;;;;;;-144.31;100.00;58022.63;5019539;28;20034;-57
2023/01/28 05:33:21;;;;;;;19.73;10.27;;;;;;;-144.31;100.00;58022.63;5009497;28;20748;-56
2023/01/28 05:36:45;;;;;;;15.95;9.82;;;;;;;-144.31;100.00;58022.63;5019925;28;20038;-59
2023/01/28 05:40:34;;;;;;;18.50;10.20;;;;;;;-144.31;100.00;58022.63;5013930;28;20438;-57
2023/01/28 05:43:59;;;;;;;18.35;10.55;;;;;;;-144.31;100.00;58022.63;5013021;28;20088;-59
2023/01/28 05:47:45;;;;;;;17.45;10.20;;;;;;;-144.31;100.00;58022.63;5012762;28;20061;-57
2023/01/28 05:51:32;;;;;;;20.50;11.20;;;;;;;-144.31;100.00;58022.63;5009232;28;20075;-55
2023/01/28 05:54:56;;;;;;;18.48;10.25;;;;;;;-144.31;100.00;58022.63;5012069;28;20044;-56
2023/01/28 05:58:21;;;;;;;19.38;10.60;;;;;;;-144.31;100.00;58022.63;5011922;28;20112;-55
2023/01/28 06:01:45;;;;;;;23.02;12.20;;;;;;;-144.31;100.00;58022.63;5011146;28;20037;-58
2023/01/28 06:05:09;;;;;;;23.38;13.52;;;;;;;-144.31;100.00;58022.63;5013815;28;20072;-57
2023/01/28 06:08:33;;;;;;;25.75;12.50;;;;;;;-144.31;100.00;58022.63;5010931;28;20037;-58
2023/01/28 06:11:57;;;;;;;24.00;13.27;;;;;;;-144.31;100.00;58022.63;5017581;28;20166;-61
2023/01/28 06:15:22;;;;;;;21.73;12.85;;;;;;;-144.31;100.00;58022.63;5008965;28;20050;-56
2023/01/28 06:19:09;;;;;;;20.73;11.82;;;;;;;-144.31;100.00;58022.63;5004186;28;20053;-56
2023/01/28 06:22:33;;;;;;;20.48;11.73;;;;;;;-144.31;100.00;58022.63;5019831;28;20084;-54
2023/01/28 06:25:58;;;;;;;23.42;13.23;;;;;;;-144.31;100.00;58022.63;5016003;28;20045;-59
2023/01/28 06:29:22;;;;;;;19.40;11.05;;;;;;;-144.31;100.00;58022.63;5010750;28;20080;-60
2023/01/28 06:32:46;;;;;;;25.80;13.77;;;;;;;-144.31;100.00;58022.63;5010347;28;20041;-58
2023/01/28 06:36:10;;;;;;;28.08;14.05;;;;;;;-144.31;100.00;58022.63;5012304;28;20129;-58
2023/01/28 06:39:34;;;;;;;27.15;14.50;;;;;;;-144.31;100.00;58022.63;5012250;28;20041;-58
2023/01/28 06:42:58;;;;;;;23.52;12.50;;;;;;;-144.31;100.00;58022.63;5009802;28;20479;-53
2023/01/28 06:46:23;;;;;;;24.45;14.07;;;;;;;-144.31;100.00;58022.63;5023160;28;20431;-54
2023/01/28 06:49:47;;;;;;;25.02;13.52;;;;;;;-144.31;100.00;58022.63;5012310;28;20045;-57
2023/01/28 06:53:11;;;;;;;19.73;11.93;;;;;;;-144.31;100.00;58022.63;5010370;28;20033;-53
2023/01/28 06:56:35;;;;;;;22.17;12.50;;;;;;;-144.31;100.00;58022.63;5013327;28;20038;-56
2023/01/28 06:59:59;;;;;;;19.67;11.77;;;;;;;-144.31;100.00;58022.63;5000346;28;20579;-59
2023/01/28 07:03:23;;;;;;;22.35;12.73;;;;;;;-144.31;100.00;58022.63;5015622;28;20746;-57
2023/01/28 07:06:47;;;;;;;23.83;13.65;;;;;;;-144.31;100.00;58022.63;5023908;28;20548;-58
2023/01/28 07:10:11;;;;;;;23.45;13.48;;;;;;;-144.31;100.00;58022.63;5021795;28;20478;-57
2023/01/28 07:13:35;;;;;;;31.35;16.15;;;;;;;-144.31;100.00;58022.63;5014437;28;20883;-60
2023/01/28 07:16:59;;;;;;;24.83;13.75;;;;;;;-144.31;100.00;58022.63;5012423;28;20131;-52
2023/01/28 07:20:23;;;;;;;25.15;14.10;;;;;;;-144.31;100.00;58022.63;5017570;28;20053;-54
2023/01/28 07:23:47;;;;;;;27.73;14.50;;;;;;;-144.31;100.00;58022.63;5022284;28;20562;-54
2023/01/28 07:27:11;;;;;;;24.42;13.07;;;;;;;-144.31;100.00;58022.63;5024129;28;20474;-56
2023/01/28 07:30:35;;;;;;;29.70;15.02;;;;;;;-144.31;100.00;58022.63;5009933;28;20049;-56
2023/01/28 07:33:59;;;;;;;26.90;14.85;;;;;;;-144.31;100.00;58022.63;5015098;28;20041;-60
2023/01/28 07:37:23;;;;;;;24.83;13.63;;;;;;;-144.31;100.00;58022.63;5012503;28;20052;-54
2023/01/28 07:40:50;;;;;;;31.88;16.17;;;;;;;-144.31;100.00;58022.63;5013835;28;20483;-54
2023/01/28 07:44:14;;;;;;;25.77;13.43;;;;;;;-144.31;100.00;58022.63;5016740;28;20058;-58
2023/01/28 07:47:38;;;;;;;29.30;14.77;;;;;;;-144.31;100.00;58022.63;5019015;28;20136;-55
2023/01/28 07:51:02;;;;;;;25.25;13.07;;;;;;;-144.31;100.00;58022.63;5010273;28;20864;-60
2023/01/28 07:54:26;;;;;;;24.88;13.23;;;;;;;-144.31;100.00;58022.63;5018535;28;20557;-54
2023/01/28 07:57:54;;;;;;;24.40;13.63;;;;;;;-144.31;100.00;58022.63;5011890;28;20088;-53
2023/01/28 08:01:19;;;;;;;22.98;12.63;;;;;;;-144.31;100.00;58022.63;5015237;28;20049;-57
2023/01/28 08:04:45;;;;;;;27.77;13.57;;;;;;;-144.31;100.00;58022.63;5016370;28;20034;-56
2023/01/28 08:08:12;;;;;;;22.47;12.80;;;;;;;-144.31;100.00;58022.63;5013345;28;20042;-58
2023/01/28 08:11:37;;;;;;;27.02;14.80;;;;;;;-144.31;100.00;58022.63;5013430;28;20143;-56
2023/01/28 08:15:01;;;;;;;31.73;16.20;;;;;;;-144.31;100.00;58022.63;5021580;28;20057;-57
2023/01/28 08:18:25;;;;;;;28.38;13.85;;;;;;;-144.31;100.00;58022.63;5020236;28;20376;-58
2023/01/28 08:21:52;;;;;;;29.23;15.48;;;;;;;-144.31;100.00;58022.63;5010675;28;20034;-55
2023/01/28 08:25:16;;;;;;;27.50;14.63;;;;;;;-144.31;100.00;58022.63;5016877;28;20053;-56
2023/01/28 08:28:40;;;;;;;39.42;20.15;;;;;;;-144.31;100.00;58022.63;5009784;28;20046;-55
2023/01/28 08:32:04;;;;;;;34.75;17.75;;;;;;;-144.31;100.00;58022.63;5020891;28;20042;-55
2023/01/28 08:35:28;;;;;;;29.77;16.02;;;;;;;-144.31;100.00;58022.63;5010559;28;20714;-55
2023/01/28 08:38:55;;;;;;;27.13;14.57;;;;;;;-144.31;100.00;58022.63;5016938;28;20044;-54
2023/01/28 08:42:20;;;;;;;29.73;14.38;;;;;;;-144.31;100.00;58022.63;5012717;28;20451;-57
2023/01/28 08:45:44;;;;;;;26.65;14.10;;;;;;;-144.31;100.00;58022.63;5013228;28;20038;-57
2023/01/28 08:49:09;;;;;;;26.70;14.40;;;;;;;-144.31;100.00;58022.63;5012590;28;20049;-59
2023/01/28 08:52:33;;;;;;;26.25;14.57;;;;;;;-144.31;100.00;58022.63;5009084;28;20034;-55
2023/01/28 08:55:57;;;;;;;26.38;14.15;;;;;;;-144.31;100.00;58022.63;5011749;28;20155;-54
2023/01/28 08:59:21;;;;;;;27.40;15.55;;;;;;;-144.31;100.00;58022.63;5012071;28;20044;-57
2023/01/28 09:02:45;;;;;;;25.00;13.70;;;;;;;-144.31;100.00;58022.63;5002951;28;20120;-56
2023/01/28 09:06:09;;;;;;;26.38;12.98;;;;;;;-144.31;100.00;58022.63;5012404;28;20124;-54
2023/01/28 09:09:33;;;;;;;22.75;13.68;;;;;;;-144.31;100.00;58022.63;5013244;28;20046;-55
2023/01/28 09:12:57;;;;;;;26.30;13.18;;;;;;;-144.31;100.00;58022.63;5012160;28;20038;-57
2023/01/28 09:16:24;;;;;;;26.25;13.98;;;;;;;-144.31;100.00;58022.63;5012133;28;20061;-58
2023/01/28 09:19:48;;;;;;;26.15;13.93;;;;;;;-144.31;100.00;58022.63;5014184;28;20029;-59
2023/01/28 09:23:12;;;;;;;23.92;13.50;;;;;;;-144.31;100.00;58022.63;5009218;28;20070;-56
2023/01/28 09:26:37;;;;;;;23.58;13.65;;;;;;;-144.31;100.00;58022.63;5011171;28;20125;-56
2023/01/28 09:30:00;;;;;;;24.38;13.05;;;;;;;-144.31;100.00;58022.63;5010553;28;20046;-54
2023/01/28 09:33:24;;;;;;;25.25;13.90;;;;;;;-144.31;100.00;58022.63;5008039;28;20034;-57
2023/01/28 09:36:48;;;;;;;27.88;13.88;;;;;;;-144.31;100.00;58022.63;5007231;28;20049;-58
2023/01/28 09:40:17;;;;;;;28.30;14.50;;;;;;;-144.31;100.00;58022.63;5007030;28;20474;-55
2023/01/28 09:44:16;;;;;;;23.92;13.45;;;;;;;-144.31;100.00;58022.63;5012725;28;20053;-57
2023/01/28 09:47:43;;;;;;;24.13;13.63;;;;;;;-144.31;100.00;58022.63;5010280;28;20038;-58
2023/01/28 09:51:27;;;;;;;26.13;13.82;;;;;;;-144.31;100.00;58022.63;5009736;28;20045;-55
2023/01/28 09:55:02;;;;;;;24.70;13.25;;;;;;;-144.31;100.00;58022.63;5012350;28;20119;-55
2023/01/28 09:58:34;;;;;;;28.15;13.85;;;;;;;-144.31;100.00;58022.63;5012824;28;20072;-58
2023/01/28 10:02:15;;;;;;;31.55;15.60;;;;;;;-144.31;100.00;58022.63;5012821;28;20069;-56
2023/01/28 10:05:50;;;;;;;30.67;16.20;;;;;;;-144.31;100.00;58022.63;5016534;28;20683;-56
2023/01/28 10:09:35;;;;;;;36.35;21.63;;;;;;;-144.31;100.00;58022.63;5011853;28;20727;-56
2023/01/28 10:13:41;;;;;;;37.30;18.65;;;;;;;-144.31;100.00;58022.63;5009376;28;20130;-58
2023/01/28 10:17:11;;;;;;;;;;;;;;;-144.31;100.00;58022.63;5013134;28;20133;-54
2023/01/28 10:20:47;;;;;;;32.97;15.10;;;;;;;-144.31;100.00;58022.63;5012701;28;19917;-56
2023/01/28 10:24:29;;;;;;;29.48;14.90;;;;;;;-144.31;100.00;58022.63;5013271;28;20097;-58
2023/01/28 10:27:53;;;;;;;36.55;16.58;;;;;;;-144.31;100.00;58022.63;5014313;28;20608;-58
2023/01/28 10:31:29;;;;;;;31.85;15.55;;;;;;;-144.31;100.00;58022.63;5011986;28;20855;-57
2023/01/28 10:34:53;;;;;;;28.65;15.43;;;;;;;-144.31;100.00;58022.63;5006798;28;20410;-55
2023/01/28 10:38:20;;;;;;;30.63;15.48;;;;;;;-144.31;100.00;58022.63;5015208;28;20074;-54
2023/01/28 10:41:44;;;;;;;28.38;14.20;;;;;;;-144.31;100.00;58022.63;5012981;28;20080;-56
2023/01/28 10:45:14;;;;;;;46.80;22.13;;;;;;;-144.31;100.00;58022.63;5016716;28;20045;-53
2023/01/28 10:49:05;;;;;;;30.83;16.20;;;;;;;-144.31;100.00;58022.63;5013711;28;20056;-56
2023/01/28 10:52:31;;;;;;;29.63;15.00;;;;;;;-144.31;100.00;58022.63;5015463;28;20209;-57
2023/01/28 10:56:04;;;;;;;32.72;16.05;;;;;;;-144.31;100.00;58022.63;5012127;28;20069;-52
2023/01/28 10:59:33;;;;;;;32.90;15.88;;;;;;;-144.31;100.00;58022.63;5015825;28;20033;-57
2023/01/28 11:02:58;;;;;;;29.35;15.35;;;;;;;-144.31;100.00;58022.63;5010988;28;20443;-59
2023/01/28 11:06:26;;;;;;;25.88;14.23;;;;;;;-144.31;100.00;58022.63;5010556;28;20048;-55
2023/01/28 11:09:50;;;;;;;25.95;14.00;;;;;;;-144.31;100.00;58022.63;5010782;28;20042;-58
2023/01/28 11:13:20;;;;;;;30.13;15.35;;;;;;;-144.31;100.00;58022.63;5008766;28;20059;-56
2023/01/28 11:16:49;;;;;;;31.50;14.57;;;;;;;-144.31;100.00;58022.63;5013701;28;20038;-54
2023/01/28 11:20:19;;;;;;;29.13;13.88;;;;;;;-144.31;100.00;58022.63;5012644;28;20080;-57
2023/01/28 11:23:58;;;;;;;28.55;15.18;;;;;;;-144.31;100.00;58022.63;5011097;28;20520;-54
2023/01/28 11:27:29;;;;;;;29.60;14.98;;;;;;;-144.31;100.00;58022.63;5011100;28;20046;-53
2023/01/28 11:30:59;;;;;;;30.25;14.73;;;;;;;-144.31;100.00;58022.63;5011260;28;20534;-57
2023/01/28 11:34:32;;;;;;;25.13;13.13;;;;;;;-144.31;100.00;58022.63;5013490;28;20905;-55
2023/01/28 11:38:03;;;;;;;28.60;13.43;;;;;;;-144.31;100.00;58022.63;5014737;28;20052;-52
2023/01/28 11:41:31;;;;;;;26.38;12.90;;;;;;;-144.31;100.00;58022.63;5010295;28;20038;-55
2023/01/28 11:44:56;;;;;;;25.50;12.45;;;;;;;-144.31;100.00;58022.63;5010251;28;20157;-54
2023/01/28 11:48:37;;;;;;;25.02;12.48;;;;;;;-144.31;100.00;58022.63;5010541;28;20502;-49
2023/01/28 11:52:33;;;;;;;25.67;12.35;;;;;;;-144.31;100.00;58022.63;5016277;28;20045;-55
2023/01/28 11:56:28;;;;;;;26.30;12.35;;;;;;;-144.31;100.00;58022.63;5014750;28;20041;-56
2023/01/28 12:00:11;;;;;;;21.42;11.23;;;;;;;-144.31;100.00;58022.63;5013087;28;20180;-54
2023/01/28 12:04:08;;;;;;;26.23;12.00;;;;;;;-144.31;100.00;58022.63;5014276;28;20533;-54
2023/01/28 12:07:47;;;;;;;23.25;12.13;;;;;;;-144.31;100.00;58022.63;5012707;28;20057;-57
2023/01/28 12:15:27;;;;;;;21.73;11.20;;;;;;;-144.31;100.00;58022.63;5015556;28;20045;-56
2023/01/28 12:19:13;;;;;;;20.33;11.35;;;;;;;-144.31;100.00;58022.63;5018342;28;20052;-56
2023/01/28 12:22:57;;;;;;;18.55;9.45;;;;;;;-144.31;100.00;58022.63;5011193;28;20042;-54
2023/01/28 12:26:47;;;;;;;22.13;10.48;;;;;;;-144.31;100.00;58022.63;5009899;28;20037;-60
2023/01/28 12:30:44;;;;;;;17.58;9.88;;;;;;;-144.31;100.00;58022.63;5010012;28;20098;-53
2023/01/28 12:34:51;;;;;;;20.67;10.00;;;;;;;-144.31;100.00;58022.63;5011955;28;20034;-53
2023/01/28 12:38:56;;;;;;;16.80;8.57;;;;;;;-144.31;100.00;58022.63;5012907;28;20425;-54
2023/01/28 12:42:23;;;;;;;19.25;9.18;;;;;;;-144.31;100.00;58022.63;4995804;28;20058;-54
2023/01/28 12:45:55;;;;;;;;;;;;;;;-144.31;100.00;58022.63;5017020;28;20033;-57
2023/01/28 12:49:24;;;;;;;15.88;8.82;;;;;;;-144.31;100.00;58022.63;5012242;28;19924;-55
2023/01/28 12:52:52;;;;;;;15.20;8.27;;;;;;;-144.31;100.00;58022.63;5011019;28;20057;-55
2023/01/28 12:56:18;;;;;;;14.38;8.65;;;;;;;-144.31;100.00;58022.63;5014977;28;20042;-56
2023/01/28 12:59:48;;;;;;;17.45;9.65;;;;;;;-144.31;100.00;58022.63;5013120;28;20501;-55
2023/01/28 13:03:20;;;;;;;16.15;8.43;;;;;;;-144.31;100.00;58022.63;5013228;28;20042;-54
2023/01/28 13:06:56;;;;;;;14.85;8.18;;;;;;;-144.31;100.00;58022.63;5011610;28;20498;-56
2023/01/28 13:10:27;;;;;;;17.00;9.67;;;;;;;-144.31;100.00;58022.63;5010833;28;20048;-57
2023/01/28 13:13:53;;;;;;;19.48;9.27;;;;;;;-144.31;100.00;58022.63;5008415;28;20298;-58
2023/01/28 13:17:27;;;;;;;21.45;11.88;;;;;;;-144.31;100.00;58022.63;5008635;28;20046;-59
2023/01/28 13:20:51;;;;;;;19.02;11.02;;;;;;;-144.31;100.00;58022.63;5010635;28;20107;-53
2023/01/28 13:24:29;;;;;;;16.08;9.18;;;;;;;-144.31;100.00;58022.63;5011383;28;20037;-53
2023/01/28 13:28:01;;;;;;;18.40;10.15;;;;;;;-144.31;100.00;58022.63;5009924;28;20719;-56
2023/01/28 13:31:35;;;;;;;17.48;10.15;;;;;;;-144.31;100.00;58022.63;5008448;28;20646;-56
2023/01/28 13:35:03;;;;;;;18.92;9.85;;;;;;;-144.31;100.00;58022.63;5010752;28;20038;-52
2023/01/28 13:38:28;;;;;;;14.55;9.45;;;;;;;-144.31;100.00;58022.63;5009863;28;20056;-54
2023/01/28 13:42:06;;;;;;;19.42;9.70;;;;;;;-144.31;100.00;58022.63;5007936;28;20342;-53
2023/01/28 13:45:32;;;;;;;15.85;9.25;;;;;;;-144.31;100.00;58022.63;5011526;28;20042;-55
2023/01/28 13:49:14;;;;;;;13.20;8.25;;;;;;;-144.31;100.00;58022.63;5009589;28;20554;-59
2023/01/28 13:52:46;;;;;;;14.05;8.70;;;;;;;-144.31;100.00;58022.63;5009656;28;20107;-58
2023/01/28 13:56:25;;;;;;;14.65;8.88;;;;;;;-144.31;100.00;58022.63;5009225;28;20474;-56
2023/01/28 14:00:04;;;;;;;13.98;8.32;;;;;;;-144.31;100.00;58022.63;5009879;28;20105;-56
2023/01/28 14:03:54;;;;;;;16.80;9.23;;;;;;;-144.31;100.00;58022.63;5008203;28;20099;-59
2023/01/28 14:07:42;;;;;;;13.60;8.27;;;;;;;-144.31;100.00;58022.63;5013791;28;20179;-56
2023/01/28 14:11:06;;;;;;;12.52;7.57;;;;;;;-144.31;100.00;58022.63;5015888;28;20392;-57
2023/01/28 14:14:42;;;;;;;12.82;7.60;;;;;;;-144.31;100.00;58022.63;5012577;28;20042;-54
2023/01/28 14:18:26;;;;;;;11.15;6.85;;;;;;;-144.31;100.00;58022.63;5014307;28;20148;-55
2023/01/28 14:21:50;;;;;;;13.13;7.85;;;;;;;-144.31;100.00;58022.63;5013977;28;20066;-59
2023/01/28 14:25:26;;;;;;;12.25;8.27;;;;;;;-144.31;100.00;58022.63;5015196;28;20044;-57
2023/01/28 14:28:54;;;;;;;12.82;8.23;;;;;;;-144.31;100.00;58022.63;5012915;28;20688;-55
2023/01/28 14:32:27;;;;;;;11.15;7.35;;;;;;;-144.31;100.00;58022.63;5012549;28;20041;-60
2023/01/28 14:35:52;;;;;;;21.42;9.00;;;;;;;-144.31;100.00;58022.63;5014717;28;20095;-58
2023/01/28 14:39:19;;;;;;;15.55;8.23;;;;;;;-144.31;100.00;58022.63;5012375;28;20041;-54
2023/01/28 14:42:47;;;;;;;14.20;7.32;;;;;;;-144.31;100.00;58022.63;5014853;28;20037;-57
2023/01/28 14:46:31;;;;;;;11.25;7.00;;;;;;;-144.31;100.00;58022.63;5015121;28;20045;-58
2023/01/28 14:50:19;;;;;;;15.25;8.27;;;;;;;-144.31;100.00;58022.63;5012343;28;20045;-58
2023/01/28 14:54:27;;;;;;;13.70;8.15;;;;;;;-144.31;100.00;58022.63;5013968;28;20052;-54
2023/01/28 14:58:16;;;;;;;11.80;7.38;;;;;;;-144.31;100.00;58022.63;5024098;28;20042;-57
2023/01/28 15:01:54;;;;;;;11.27;7.70;;;;;;;-144.31;100.00;58022.63;5011897;28;20494;-53
2023/01/28 15:05:26;;;;;;;11.57;7.47;;;;;;;-144.31;100.00;58022.63;5012025;28;20466;-53
2023/01/28 15:08:51;;;;;;;9.90;7.03;;;;;;;-144.31;100.00;58022.63;5012380;28;20129;-54
2023/01/28 15:12:19;;;;;;;12.57;7.50;;;;;;;-144.31;100.00;58022.63;5014794;28;20037;-54
2023/01/28 15:15:46;;;;;;;12.60;7.57;;;;;;;-144.31;100.00;58022.63;5008946;28;20038;-54
2023/01/28 15:19:13;;;;;;;13.90;7.18;;;;;;;-144.31;100.00;58022.63;5013263;28;20042;-55
2023/01/28 15:22:41;;;;;;;11.35;7.18;;;;;;;-144.31;100.00;58022.63;5020247;28;20071;-55
2023/01/28 15:26:20;;;;;;;12.55;7.55;;;;;;;-144.31;100.00;58022.63;5012145;28;20129;-53
2023/01/28 15:29:55;;;;;;;10.63;6.70;;;;;;;-144.31;100.00;58022.63;5015136;28;20109;-54
2023/01/28 15:33:21;;;;;;;10.68;6.60;;;;;;;-144.31;100.00;58022.63;5016813;28;20052;-53
2023/01/28 15:36:48;;;;;;;10.13;6.32;;;;;;;-144.31;100.00;58022.63;5015470;28;20037;-56
2023/01/28 15:40:18;;;;;;;14.13;6.70;;;;;;;-144.31;100.00;58022.63;5014741;28;20797;-58
2023/01/28 15:43:45;;;;;;;14.52;8.27;;;;;;;-144.31;100.00;58022.63;5015825;28;20054;-57
2023/01/28 15:47:14;;;;;;;13.43;8.30;;;;;;;-144.31;100.00;58022.63;5022937;28;20045;-55
2023/01/28 15:50:43;;;;;;;11.85;8.07;;;;;;;-144.31;100.00;58022.63;5025038;28;20067;-55
2023/01/28 15:54:09;;;;;;;13.13;6.70;;;;;;;-144.31;100.00;58022.63;5011232;28;20050;-58
2023/01/28 15:57:34;;;;;;;13.02;7.57;;;;;;;-144.31;100.00;58022.63;5020055;28;20056;-56
2023/01/28 16:01:17;;;;;;;14.00;7.10;;;;;;;-144.31;100.00;58022.63;5015106;28;20052;-54
2023/01/28 16:04:42;;;;;;;20.15;9.32;;;;;;;-144.31;100.00;58022.63;5013278;28;20081;-59
2023/01/28 16:08:23;;;;;;;14.98;7.22;;;;;;;-144.31;100.00;58022.63;5014366;28;20048;-57
2023/01/28 16:11:52;;;;;;;12.93;8.30;;;;;;;-144.31;100.00;58022.63;5007211;28;20399;-60
2023/01/28 16:15:20;;;;;;;10.48;6.97;;;;;;;-144.31;100.00;58022.63;5016180;28;20033;-55